Latest Weather Observations for Laverton

IDV60801

Issued at 4:43 pm EST Sunday 11 April 2021 (issued every 10 minutes, with the page automatically refreshed every 10 minutes)

About weather observations | Map of weather stations | Latest weather observations for VIC | Other Formats
Station Details ID: 087031 Name: LAVERTON RAAF Lat: -37.86 Lon: 144.76 Height: 20.1 m
Data from the previous 72 hours. | See also: Recent months at Laverton
Date/Time
EST
Temp
°C
App
Temp
°C
Dew
Point
°C
Rel
Hum
%
Delta-T
°C
Wind Press
QNH
hPa
Press
MSL
hPa
Rain since
9am
mm
Dir  Spd
km/h
Gust
km/h
Spd
kts
Gust
kts
11/04:34pm 11.8 5.0 7.9 77 1.9 SSW 33 52 18 28 1018.4 1018.3 0.8
11/04:30pm 11.6 4.0 7.5 76 2.0 SSW 37 52 20 28 1018.5 1018.4 0.8
11/04:00pm 14.9 7.5 4.0 48 5.0 SW 32 52 17 28 1017.8 1017.7 0.8
11/03:30pm 14.6 5.9 4.3 50 4.8 SW 39 57 21 31 1017.4 1017.3 0.8
11/03:10pm 15.1 8.3 5.3 52 4.6 SW 30 48 16 26 1017.2 1017.1 0.8
11/03:00pm 15.0 9.1 6.0 55 4.3 SW 26 39 14 21 1017.1 1017.0 0.8
11/02:40pm 13.2 5.6 5.6 60 3.6 SW 35 54 19 29 1017.0 1016.9 0.8
11/02:30pm 14.4 7.1 5.5 55 4.2 SW 33 48 18 26 1016.7 1016.6 0.8
11/02:00pm 13.2 6.5 7.2 67 2.9 SSW 32 50 17 27 1016.7 1016.6 0.8
11/01:32pm 14.6 6.1 5.1 53 4.5 SW 39 57 21 31 1016.5 1016.4 0.8
11/01:30pm 14.3 5.4 4.9 53 4.4 SW 41 57 22 31 1016.5 1016.4 0.8
11/01:00pm 12.7 6.7 7.0 68 2.7 SSW 28 43 15 23 1016.4 1016.3 0.8
11/12:58pm 12.5 6.0 6.5 67 2.9 SSW 30 48 16 26 1016.4 1016.3 0.8
11/12:43pm 12.0 6.4 7.3 73 2.3 SW 26 37 14 20 1016.6 1016.5 0.8
11/12:32pm 10.9 3.3 7.4 79 1.7 SW 37 65 20 35 1016.6 1016.5 0.8
11/12:30pm 10.9 3.6 7.2 78 1.8 SW 35 65 19 35 1016.6 1016.5 0.8
11/12:00pm 10.8 3.8 6.9 77 1.8 SW 33 57 18 31 1016.7 1016.6 0.6
11/11:33am 12.6 6.5 6.4 66 2.9 SW 28 46 15 25 1016.3 1016.2 0.6
11/11:30am 12.5 7.0 6.1 65 3.0 SW 24 46 13 25 1016.2 1016.1 0.6
11/11:11am 11.4 5.1 5.9 69 2.6 SW 28 54 15 29 1016.4 1016.3 0.6
11/11:00am 11.8 6.8 8.1 78 1.8 SSW 24 35 13 19 1016.1 1016.0 0.6
11/10:36am 13.0 6.8 6.1 63 3.3 WSW 28 46 15 25 1015.8 1015.7 0.4
11/10:30am 12.3 6.5 6.4 67 2.8 WSW 26 35 14 19 1015.6 1015.5 0.4
11/10:00am 11.0 4.8 6.2 72 2.2 WSW 28 46 15 25 1016.0 1015.9 0.4
11/09:43am 9.9 5.5 7.2 83 1.3 WSW 20 28 11 15 1015.6 1015.5 0.4
11/09:30am 9.2 2.3 6.6 84 1.2 SW 32 57 17 31 1016.0 1015.9 0.4
11/09:25am 9.5 2.0 6.2 80 1.5 SW 35 57 19 31 1016.1 1016.0 0.0
11/09:19am 10.8 4.6 6.0 72 2.2 WSW 28 46 15 25 1015.8 1015.7 0.0
11/09:00am 10.1 5.8 7.0 81 1.5 W 19 28 10 15 1015.1 1015.0 3.2
11/08:30am 8.4 2.9 5.9 84 1.1 W 24 33 13 18 1014.9 1014.8 3.2
11/08:00am 8.3 3.1 5.6 83 1.2 W 22 32 12 17 1014.7 1014.6 2.4
11/07:30am 8.1 2.1 5.4 83 1.2 WSW 26 39 14 21 1013.9 1013.8 2.4
11/07:18am 8.2 1.8 5.0 80 1.4 WSW 28 46 15 25 1013.7 1013.6 2.2
11/07:15am 8.3 2.3 5.1 80 1.4 WSW 26 46 14 25 1013.7 1013.6 2.0
11/07:00am 7.5 2.8 5.1 85 1.1 W 19 28 10 15 1013.6 1013.5 2.0
11/06:30am 7.3 2.0 5.0 85 1.0 WNW 22 30 12 16 1013.1 1013.0 1.8
11/06:00am 7.5 2.8 5.0 84 1.1 W 19 26 10 14 1013.2 1013.1 1.6
11/05:30am 7.5 2.7 4.6 82 1.3 WSW 19 30 10 16 1012.8 1012.7 1.4
11/05:00am 7.4 2.4 4.4 81 1.3 W 20 30 11 16 1012.1 1012.0 1.2
11/04:30am 7.3 1.1 4.1 80 1.4 W 26 35 14 19 1011.5 1011.5 1.2
11/04:00am 7.5 1.2 3.9 78 1.5 W 26 39 14 21 1011.3 1011.3 1.2
11/03:30am 7.5 1.6 3.9 78 1.5 W 24 32 13 17 1011.0 1011.0 1.2
11/03:00am 7.9 2.1 4.3 78 1.6 W 24 33 13 18 1010.9 1010.9 1.2
11/02:30am 7.7 1.9 4.5 80 1.4 W 24 35 13 19 1011.2 1011.2 1.2
11/02:00am 8.1 2.7 4.5 78 1.6 W 22 32 12 17 1010.8 1010.8 1.2
11/01:30am 8.1 3.1 4.7 79 1.5 W 20 28 11 15 1011.1 1011.1 1.2
11/01:00am 7.7 2.7 4.8 82 1.3 WNW 20 32 11 17 1010.9 1010.9 1.2
11/12:30am 7.7 2.9 4.7 81 1.3 W 19 26 10 14 1010.6 1010.6 1.2
11/12:00am 8.2 2.5 5.0 80 1.4 W 24 35 13 19 1010.7 1010.7 1.2
 
Date/Time
EST
Temp
°C
App
Temp
°C
Dew
Point
°C
Rel
Hum
%
Delta-T
°C
Wind Press
QNH
hPa
Press
MSL
hPa
Rain since
9am
mm
Dir  Spd
km/h
Gust
km/h
Spd
kts
Gust
kts
10/11:30pm 8.4 2.0 5.2 80 1.4 W 28 35 15 19 1010.9 1010.9 1.2
10/11:00pm 8.1 3.2 5.2 82 1.3 WNW 20 28 11 15 1010.7 1010.7 1.2
10/10:30pm 8.2 3.4 5.5 83 1.2 WNW 20 28 11 15 1010.5 1010.5 1.2
10/10:00pm 8.7 3.6 5.8 82 1.3 WNW 22 39 12 21 1010.7 1010.7 1.2
10/09:30pm 8.8 4.2 6.3 84 1.2 WNW 20 28 11 15 1010.6 1010.6 1.2
10/09:00pm 8.9 3.9 6.3 84 1.2 W 22 33 12 18 1010.5 1010.5 1.2
10/08:58pm 8.9 3.9 6.5 85 1.1 W 22 32 12 17 1010.6 1010.6 1.2
10/08:43pm 9.2 3.9 6.6 84 1.2 W 24 41 13 22 1010.8 1010.8 1.0
10/08:30pm 9.0 5.8 6.8 86 1.0 WNW 13 17 7 9 1010.7 1010.7 0.6
10/08:00pm 8.5 5.2 6.5 87 0.9 NW 13 17 7 9 1010.1 1010.1 0.6
10/07:30pm 8.1 4.6 5.6 84 1.1 WNW 13 17 7 9 1009.7 1009.7 0.6
10/07:00pm 9.3 5.1 5.7 78 1.6 W 17 24 9 13 1009.7 1009.7 0.6
10/06:30pm 9.7 3.8 5.9 77 1.7 W 26 37 14 20 1009.8 1009.8 0.6
10/06:24pm 9.7 3.1 5.9 77 1.7 WSW 30 54 16 29 1009.8 1009.8 0.6
10/06:06pm 9.7 2.1 5.9 77 1.7 WSW 35 61 19 33 1010.0 1010.0 0.6
10/06:02pm 10.7 4.4 5.9 72 2.2 WSW 28 61 15 33 1010.0 1010.0 0.4
10/06:00pm 11.8 6.8 6.3 69 2.6 W 22 37 12 20 1009.9 1009.9 0.4
10/05:30pm 12.0 6.5 5.9 66 2.9 W 24 37 13 20 1008.9 1008.9 0.4
10/05:04pm 12.4 5.9 6.7 68 2.7 W 30 48 16 26 1008.9 1008.9 0.4
10/05:00pm 12.1 5.3 6.8 70 2.5 WSW 32 48 17 26 1008.8 1008.8 0.4
10/04:30pm 12.6 5.9 7.5 71 2.5 W 32 46 17 25 1008.7 1008.7 0.4
10/04:17pm 12.4 5.5 7.1 70 2.6 WSW 33 48 18 26 1008.5 1008.5 0.4
10/04:00pm 11.5 3.7 8.2 80 1.6 WSW 39 70 21 38 1008.7 1008.7 0.4
10/03:57pm 12.1 4.5 7.6 74 2.2 WSW 37 70 20 38 1008.6 1008.6 0.2
10/03:56pm 12.7 5.1 7.4 70 2.6 WSW 37 70 20 38 1008.4 1008.4 0.2
10/03:38pm 15.6 8.8 4.9 49 5.0 WSW 30 48 16 26 1007.9 1007.9 0.2
10/03:30pm 15.5 7.7 5.1 50 4.9 WSW 35 48 19 26 1007.9 1007.9 0.0
10/03:00pm 15.8 8.6 5.7 51 4.9 WSW 33 50 18 27 1007.9 1007.9 0.0
10/02:30pm 16.3 8.0 6.2 51 4.9 WSW 39 57 21 31 1007.7 1007.7 0.0
10/02:10pm 17.4 9.9 3.7 40 6.4 WSW 32 52 17 28 1007.2 1007.2 0.0
10/02:00pm 17.7 11.0 5.6 45 5.9 WSW 30 44 16 24 1007.3 1007.3 0.0
10/01:36pm 17.7 11.0 3.6 39 6.6 WSW 28 50 15 27 1007.3 1007.3 0.0
10/01:30pm 17.3 9.8 3.6 40 6.4 WSW 32 44 17 24 1007.4 1007.4 0.0
10/01:15pm 16.8 9.5 4.5 44 5.8 WSW 32 57 17 31 1007.6 1007.6 0.0
10/01:00pm 17.3 11.2 6.5 49 5.3 WSW 28 44 15 24 1007.6 1007.6 0.0
10/12:34pm 15.2 8.9 8.9 66 3.2 WSW 32 50 17 27 1007.9 1007.9 0.0
10/12:30pm 15.3 9.1 9.2 67 3.1 WSW 32 46 17 25 1007.8 1007.8 0.0
10/12:24pm 15.3 10.1 10.1 71 2.7 WSW 28 44 15 24 1007.8 1007.8 0.0
10/12:13pm 14.6 10.2 11.7 83 1.6 WSW 26 41 14 22 1007.9 1007.9 0.0
10/12:00pm 15.0 11.5 12.1 83 1.6 W 22 30 12 16 1007.8 1007.8 0.0
10/11:33am 14.7 8.2 10.5 76 2.2 WSW 35 54 19 29 1007.9 1007.9 0.0
10/11:30am 14.8 8.7 10.4 75 2.3 WSW 33 54 18 29 1007.8 1007.8 0.0
10/11:00am 15.9 9.9 10.0 68 3.1 W 32 50 17 27 1007.7 1007.7 0.0
10/10:43am 15.1 10.0 10.7 75 2.3 W 28 50 15 27 1007.6 1007.6 0.0
10/10:42am 15.1 10.1 10.9 76 2.2 W 28 44 15 24 1007.7 1007.7 0.0
10/10:31am 15.0 9.5 10.6 75 2.3 W 30 44 16 24 1007.6 1007.6 0.0
10/10:30am 15.0 9.1 10.4 74 2.4 W 32 44 17 24 1007.5 1007.5 0.0
10/10:00am 16.2 11.2 9.4 64 3.5 W 26 41 14 22 1007.4 1007.4 0.0
10/09:30am 16.0 11.3 10.5 70 2.9 WNW 26 37 14 20 1007.4 1007.4 0.0
10/09:00am 14.8 11.1 10.2 74 2.4 NW 20 28 11 15 1007.5 1007.5 0.2
10/08:30am 13.2 8.6 9.8 80 1.7 WNW 24 33 13 18 1007.7 1007.7 0.2
10/08:00am 13.8 9.7 8.8 72 2.5 WNW 20 32 11 17 1007.4 1007.4 0.2
10/07:30am 12.7 8.8 8.6 76 2.0 NW 19 24 10 13 1007.3 1007.3 0.2
10/07:00am 12.4 8.4 8.1 75 2.1 NW 19 22 10 12 1007.1 1007.1 0.2
10/06:30am 12.1 8.4 7.8 75 2.1 NW 17 20 9 11 1007.1 1007.1 0.2
10/06:00am 12.1 8.3 7.6 74 2.2 NW 17 20 9 11 1007.1 1007.1 0.2
10/05:30am 12.2 9.6 7.7 74 2.2 NW 11 13 6 7 1007.2 1007.2 0.2
10/05:00am 12.3 9.2 7.4 72 2.4 WNW 13 20 7 11 1007.2 1007.2 0.2
10/04:30am 12.5 9.8 7.4 71 2.5 NW 11 15 6 8 1007.6 1007.6 0.2
10/04:00am 12.4 9.4 7.5 72 2.4 WNW 13 17 7 9 1007.6 1007.6 0.2
10/03:30am 12.4 9.4 7.5 72 2.4 NW 13 17 7 9 1007.5 1007.5 0.2
10/03:00am 12.5 9.8 7.2 70 2.6 WNW 11 15 6 8 1007.8 1007.8 0.2
10/02:30am 12.6 8.7 7.1 69 2.7 WNW 17 22 9 12 1008.2 1008.2 0.2
10/02:00am 11.5 9.3 7.8 78 1.8 WNW 9 13 5 7 1008.5 1008.5 0.2
10/01:30am 11.4 8.8 7.9 79 1.7 NW 11 13 6 7 1008.7 1008.7 0.2
10/01:00am 11.1 8.7 7.2 77 1.9 WNW 9 11 5 6 1008.7 1008.7 0.2
10/12:30am 10.9 8.4 6.5 74 2.1 WNW 9 15 5 8 1008.9 1008.9 0.2
10/12:00am 12.7 9.9 7.0 68 2.8 W 11 15 6 8 1009.0 1009.0 0.2
 
Date/Time
EST
Temp
°C
App
Temp
°C
Dew
Point
°C
Rel
Hum
%
Delta-T
°C
Wind Press
QNH
hPa
Press
MSL
hPa
Rain since
9am
mm
Dir  Spd
km/h
Gust
km/h
Spd
kts
Gust
kts
09/11:30pm 12.8 9.2 6.8 67 2.9 WNW 15 20 8 11 1009.5 1009.5 0.2
09/11:00pm 12.7 10.0 7.2 69 2.7 W 11 15 6 8 1009.8 1009.8 0.2
09/10:30pm 11.6 9.1 8.3 80 1.6 WNW 11 13 6 7 1010.1 1010.1 0.2
09/10:00pm 11.3 8.8 8.0 80 1.6 NW 11 13 6 7 1010.1 1010.1 0.2
09/09:30pm 12.1 9.9 7.8 75 2.1 SW 9 11 5 6 1010.2 1010.2 0.2
09/09:00pm 13.2 11.1 8.1 71 2.5 SW 9 11 5 6 1010.3 1010.3 0.2
09/08:30pm 13.8 12.0 8.0 68 2.9 SW 7 11 4 6 1010.2 1010.2 0.2
09/08:00pm 14.0 12.2 7.8 66 3.1 SSW 7 11 4 6 1010.0 1010.0 0.2
09/07:30pm 13.9 11.7 7.9 67 3.0 SSW 9 11 5 6 1009.9 1009.9 0.2
09/07:00pm 14.0 11.7 7.5 65 3.2 SSW 9 13 5 7 1009.7 1009.7 0.2
09/06:30pm 14.0 11.3 7.5 65 3.2 S 11 17 6 9 1009.4 1009.4 0.2
09/06:00pm 14.7 11.3 7.7 63 3.5 SSW 15 20 8 11 1009.3 1009.3 0.2
09/05:30pm 15.1 12.1 7.6 61 3.7 S 13 19 7 10 1009.3 1009.3 0.2
09/05:00pm 15.4 11.0 7.2 58 4.1 S 20 28 11 15 1009.3 1009.3 0.2
09/04:30pm 16.1 11.9 8.1 59 4.0 S 20 28 11 15 1009.3 1009.3 0.2
09/04:00pm 16.2 12.0 7.4 56 4.4 S 19 26 10 14 1009.2 1009.2 0.2
09/03:30pm 16.8 13.6 8.5 58 4.2 SSW 15 20 8 11 1009.4 1009.4 0.2
09/03:00pm 16.9 12.8 8.8 59 4.2 SSW 20 28 11 15 1009.5 1009.5 0.2
09/02:30pm 16.8 12.2 9.5 62 3.8 S 24 33 13 18 1009.3 1009.3 0.0
09/02:00pm 15.8 10.0 9.5 66 3.3 SSW 30 39 16 21 1009.4 1009.4 0.0
09/01:30pm 15.5 11.2 9.4 67 3.2 SSW 22 33 12 18 1009.5 1009.5 0.0
09/01:11pm 15.5 10.1 9.4 67 3.2 SSW 28 46 15 25 1009.6 1009.6 0.0
09/01:00pm 17.1 12.5 8.3 56 4.5 SW 22 35 12 19 1009.5 1009.5 0.0
09/12:30pm 16.2 12.5 9.4 64 3.5 SW 19 28 10 15 1009.9 1009.9 0.0
09/12:00pm 15.4 11.1 9.3 67 3.1 SW 22 32 12 17 1010.1 1010.1 0.0
09/11:30am 14.8 10.1 9.4 70 2.8 SSW 24 37 13 20 1010.2 1010.2 0.0
09/11:00am 15.3 10.6 9.4 68 3.0 SSW 24 35 13 19 1010.1 1010.1 0.0
09/10:30am 17.0 12.6 8.9 59 4.2 SW 22 32 12 17 1009.8 1009.8 0.0
09/10:00am 16.2 11.4 7.4 56 4.4 SW 22 44 12 24 1009.8 1009.8 0.0
09/09:30am 15.5 11.5 8.3 62 3.6 W 19 32 10 17 1009.8 1009.8 0.0
09/09:00am 15.3 11.3 9.0 66 3.2 W 20 28 11 15 1010.1 1010.1 3.6
09/08:30am 14.2 10.8 9.2 72 2.6 W 17 22 9 12 1009.9 1009.9 3.6
09/08:00am 13.6 10.6 9.3 75 2.2 W 15 20 8 11 1009.5 1009.5 3.6
09/07:30am 12.7 10.1 9.5 81 1.6 W 13 19 7 10 1009.1 1009.1 3.6
09/07:00am 12.8 9.8 9.4 80 1.7 WSW 15 20 8 11 1008.7 1008.7 3.6
09/06:30am 13.0 9.4 9.8 81 1.6 WSW 19 26 10 14 1008.3 1008.3 3.6
09/06:00am 13.5 9.5 10.3 81 1.7 WSW 22 30 12 16 1007.8 1007.8 3.6
09/05:30am 13.9 10.5 11.1 83 1.5 W 20 30 11 16 1007.8 1007.8 3.6
09/05:00am 14.0 12.0 13.8 99 0.1 W 17 28 9 15 1007.4 1007.4 3.6
09/04:31am 13.8 12.1 13.6 99 0.1 SW 15 20 8 11 1007.1 1007.1 3.6
09/04:30am 13.8 12.1 13.6 99 0.1 SW 15 20 8 11 1007.1 1007.1 3.6
09/04:12am 13.8 11.1 13.6 99 0.1 SW 20 32 11 17 1007.1 1007.1 3.6
09/04:05am 14.0 11.4 13.8 99 0.1 SW 20 30 11 16 1007.1 1007.1 3.6
09/04:02am 14.0 11.4 13.8 99 0.1 SW 20 30 11 16 1007.0 1007.0 3.6
09/04:00am 14.0 11.0 13.8 99 0.1 SW 22 30 12 16 1006.9 1006.9 3.6
09/03:30am 14.4 11.9 14.2 99 0.1 SW 20 30 11 16 1006.5 1006.5 3.4
09/03:00am 14.9 11.3 14.3 96 0.3 SSW 26 39 14 21 1006.1 1006.1 2.8
09/02:58am 15.0 11.1 14.4 96 0.3 SSW 28 39 15 21 1006.1 1006.1 2.8
09/02:57am 15.0 11.1 14.4 96 0.3 SSW 28 39 15 21 1006.1 1006.1 2.8
09/02:41am 16.2 15.2 15.6 96 0.4 W 15 24 8 13 1005.7 1005.7 2.6
09/02:38am 16.3 16.1 15.7 96 0.4 W 11 24 6 13 1005.7 1005.7 2.6
09/02:30am 16.3 16.5 15.7 96 0.4 W 9 11 5 6 1005.7 1005.7 2.4
09/02:00am 16.2 15.8 15.2 94 0.6 W 11 17 6 9 1005.5 1005.5 2.4
09/01:30am 16.4 14.8 14.9 91 0.9 WNW 17 20 9 11 1006.0 1006.0 1.6
09/01:00am 17.2 14.9 14.1 82 1.8 W 19 30 10 16 1006.3 1006.3 0.6
09/12:30am 18.8 15.5 12.8 68 3.4 W 22 32 12 17 1006.2 1006.2 0.0
09/12:00am 19.6 17.6 11.6 60 4.4 WSW 13 19 7 10 1005.8 1005.8 0.0
 
Date/Time
EST
Temp
°C
App
Temp
°C
Dew
Point
°C
Rel
Hum
%
Delta-T
°C
Wind Press
QNH
hPa
Press
MSL
hPa
Rain since
9am
mm
Dir  Spd
km/h
Gust
km/h
Spd
kts
Gust
kts
08/11:30pm 19.9 17.6 11.7 59 4.5 WSW 15 22 8 12 1005.3 1005.3 0.0
08/11:00pm 20.2 18.4 10.9 55 5.1 WSW 11 15 6 8 1005.3 1005.3 0.0
08/10:30pm 20.6 17.4 10.1 51 5.7 WSW 17 28 9 15 1006.0 1006.0 0.0
08/10:00pm 21.0 17.9 8.9 46 6.4 SSW 15 20 8 11 1005.8 1005.8 0.0
08/09:30pm 20.9 20.0 12.6 59 4.7 S 9 11 5 6 1006.2 1006.2 0.0
08/09:00pm 22.2 19.7 9.7 45 6.8 SW 13 20 7 11 1006.0 1006.0 0.0
08/08:30pm 23.2 19.2 8.9 40 7.7 SW 20 32 11 17 1005.9 1005.9 0.0
08/08:00pm 23.5 21.1 7.2 35 8.5 N 9 30 5 16 1005.4 1005.4 0.0
08/07:30pm 24.0 21.3 5.8 31 9.3 N 9 13 5 7 1004.9 1004.9 0.0
08/07:00pm 24.0 21.6 5.4 30 9.4 NNW 7 11 4 6 1004.9 1004.9 0.0
08/06:30pm 24.9 21.5 4.1 26 10.3 N 11 13 6 7 1004.7 1004.7 0.0
08/06:00pm 25.0 21.7 4.7 27 10.2 N 11 13 6 7 1004.8 1004.8 0.0
08/05:30pm 25.7 21.3 4.8 26 10.6 NNW 17 20 9 11 1004.9 1004.9 0.0
08/05:00pm 27.1 22.2 4.2 23 11.6 NW 19 28 10 15 1004.7 1004.7 0.0

Other formats

Comma delimited format used in spreadsheet applications
http://www.bom.gov.au/fwo/IDV60801/IDV60801.94865.axf

JavaScript Object Notation format (JSON) in row-major order
http://www.bom.gov.au/fwo/IDV60801/IDV60801.94865.json

Data quality

Most of these data are generated automatically and are frequently updated. Quality checks on data are not normally performed. It is possible for incorrect values to appear. Refer to information at About Latest Weather Observations and please check the disclaimer before using these data.